sensor_id;sensor_type;location;lat;lon;timestamp;P1;durP1;ratioP1;P2;durP2;ratioP2
23418;SDS011;11882;42.522;27.458;2024-03-02T00:01:47;226.90;;;157.53;;
23418;SDS011;11882;42.522;27.458;2024-03-02T00:04:14;112.63;;;90.40;;
23418;SDS011;11882;42.522;27.458;2024-03-02T00:06:44;512.17;;;322.60;;
23418;SDS011;11882;42.522;27.458;2024-03-02T00:09:10;483.67;;;279.80;;
23418;SDS011;11882;42.522;27.458;2024-03-02T00:11:37;388.37;;;219.70;;
23418;SDS011;11882;42.522;27.458;2024-03-02T00:14:05;499.27;;;243.30;;
23418;SDS011;11882;42.522;27.458;2024-03-02T00:16:32;484.50;;;249.93;;
23418;SDS011;11882;42.522;27.458;2024-03-02T00:19:02;463.73;;;229.63;;
23418;SDS011;11882;42.522;27.458;2024-03-02T00:21:30;472.50;;;321.27;;
23418;SDS011;11882;42.522;27.458;2024-03-02T00:23:59;231.97;;;126.97;;
23418;SDS011;11882;42.522;27.458;2024-03-02T00:26:27;343.73;;;211.93;;
23418;SDS011;11882;42.522;27.458;2024-03-02T00:28:55;464.17;;;253.03;;
23418;SDS011;11882;42.522;27.458;2024-03-02T00:31:23;388.73;;;162.67;;
23418;SDS011;11882;42.522;27.458;2024-03-02T00:33:50;508.00;;;242.77;;
23418;SDS011;11882;42.522;27.458;2024-03-02T00:36:21;465.77;;;324.47;;
23418;SDS011;11882;42.522;27.458;2024-03-02T00:38:50;354.87;;;194.80;;
23418;SDS011;11882;42.522;27.458;2024-03-02T00:41:21;119.13;;;66.13;;
23418;SDS011;11882;42.522;27.458;2024-03-02T00:43:51;359.73;;;131.53;;
23418;SDS011;11882;42.522;27.458;2024-03-02T00:46:19;363.47;;;117.80;;
23418;SDS011;11882;42.522;27.458;2024-03-02T00:48:48;386.07;;;163.47;;
23418;SDS011;11882;42.522;27.458;2024-03-02T00:51:15;495.20;;;294.83;;
23418;SDS011;11882;42.522;27.458;2024-03-02T00:53:42;488.13;;;256.43;;
23418;SDS011;11882;42.522;27.458;2024-03-02T00:56:09;488.87;;;255.27;;
23418;SDS011;11882;42.522;27.458;2024-03-02T00:58:37;448.87;;;191.83;;
23418;SDS011;11882;42.522;27.458;2024-03-02T01:01:04;323.97;;;177.40;;
23418;SDS011;11882;42.522;27.458;2024-03-02T01:03:32;343.77;;;224.77;;
23418;SDS011;11882;42.522;27.458;2024-03-02T01:05:59;358.83;;;203.57;;
23418;SDS011;11882;42.522;27.458;2024-03-02T01:08:26;87.47;;;62.47;;
23418;SDS011;11882;42.522;27.458;2024-03-02T01:10:53;209.33;;;130.40;;
23418;SDS011;11882;42.522;27.458;2024-03-02T01:13:21;317.53;;;143.50;;
23418;SDS011;11882;42.522;27.458;2024-03-02T01:15:49;149.23;;;125.73;;
23418;SDS011;11882;42.522;27.458;2024-03-02T01:18:16;178.73;;;127.47;;
23418;SDS011;11882;42.522;27.458;2024-03-02T01:20:43;61.30;;;54.87;;
23418;SDS011;11882;42.522;27.458;2024-03-02T01:23:10;321.13;;;195.77;;
23418;SDS011;11882;42.522;27.458;2024-03-02T01:25:37;167.60;;;122.30;;
23418;SDS011;11882;42.522;27.458;2024-03-02T01:28:04;18.63;;;17.03;;
23418;SDS011;11882;42.522;27.458;2024-03-02T01:30:31;4.63;;;3.07;;
23418;SDS011;11882;42.522;27.458;2024-03-02T01:32:59;3.83;;;2.87;;
23418;SDS011;11882;42.522;27.458;2024-03-02T01:35:27;5.07;;;2.97;;
23418;SDS011;11882;42.522;27.458;2024-03-02T01:37:54;5.50;;;4.23;;
23418;SDS011;11882;42.522;27.458;2024-03-02T01:40:21;40.47;;;25.27;;
23418;SDS011;11882;42.522;27.458;2024-03-02T01:42:51;5.27;;;3.33;;
23418;SDS011;11882;42.522;27.458;2024-03-02T01:45:18;6.60;;;2.63;;
23418;SDS011;11882;42.522;27.458;2024-03-02T01:47:45;4.33;;;3.00;;
23418;SDS011;11882;42.522;27.458;2024-03-02T01:50:13;6.40;;;4.10;;
23418;SDS011;11882;42.522;27.458;2024-03-02T01:52:40;10.17;;;4.97;;
23418;SDS011;11882;42.522;27.458;2024-03-02T01:55:09;5.17;;;3.40;;
23418;SDS011;11882;42.522;27.458;2024-03-02T01:57:36;7.50;;;5.17;;
23418;SDS011;11882;42.522;27.458;2024-03-02T02:00:03;6.00;;;3.93;;
23418;SDS011;11882;42.522;27.458;2024-03-02T02:02:30;4.90;;;4.20;;
23418;SDS011;11882;42.522;27.458;2024-03-02T02:04:57;6.50;;;3.60;;
23418;SDS011;11882;42.522;27.458;2024-03-02T02:07:25;5.43;;;3.90;;
23418;SDS011;11882;42.522;27.458;2024-03-02T02:09:52;8.17;;;4.53;;
23418;SDS011;11882;42.522;27.458;2024-03-02T02:12:19;7.10;;;3.63;;
23418;SDS011;11882;42.522;27.458;2024-03-02T02:14:49;4.73;;;3.67;;
23418;SDS011;11882;42.522;27.458;2024-03-02T02:17:16;12.53;;;4.33;;
23418;SDS011;11882;42.522;27.458;2024-03-02T02:19:43;5.80;;;3.97;;
23418;SDS011;11882;42.522;27.458;2024-03-02T02:22:11;5.10;;;3.97;;
23418;SDS011;11882;42.522;27.458;2024-03-02T02:24:39;4.10;;;3.30;;
23418;SDS011;11882;42.522;27.458;2024-03-02T02:27:06;4.70;;;3.40;;
23418;SDS011;11882;42.522;27.458;2024-03-02T02:29:33;8.83;;;4.47;;
23418;SDS011;11882;42.522;27.458;2024-03-02T02:32:00;5.67;;;4.37;;
23418;SDS011;11882;42.522;27.458;2024-03-02T02:34:26;7.07;;;4.67;;
23418;SDS011;11882;42.522;27.458;2024-03-02T02:36:53;4.57;;;3.83;;
23418;SDS011;11882;42.522;27.458;2024-03-02T02:39:22;7.87;;;4.00;;
23418;SDS011;11882;42.522;27.458;2024-03-02T02:41:49;6.00;;;3.67;;
23418;SDS011;11882;42.522;27.458;2024-03-02T02:44:15;13.60;;;3.90;;
23418;SDS011;11882;42.522;27.458;2024-03-02T02:46:42;6.57;;;4.43;;
23418;SDS011;11882;42.522;27.458;2024-03-02T02:49:09;5.60;;;3.73;;
23418;SDS011;11882;42.522;27.458;2024-03-02T02:51:36;5.70;;;3.80;;
23418;SDS011;11882;42.522;27.458;2024-03-02T02:54:03;7.93;;;3.87;;
23418;SDS011;11882;42.522;27.458;2024-03-02T02:56:31;8.00;;;4.03;;
23418;SDS011;11882;42.522;27.458;2024-03-02T02:58:58;7.90;;;4.27;;
23418;SDS011;11882;42.522;27.458;2024-03-02T03:01:25;4.83;;;2.97;;
23418;SDS011;11882;42.522;27.458;2024-03-02T03:03:52;6.20;;;3.70;;
23418;SDS011;11882;42.522;27.458;2024-03-02T03:06:19;6.87;;;4.37;;
23418;SDS011;11882;42.522;27.458;2024-03-02T03:08:45;10.23;;;5.57;;
23418;SDS011;11882;42.522;27.458;2024-03-02T03:11:12;6.17;;;3.00;;
23418;SDS011;11882;42.522;27.458;2024-03-02T03:13:41;7.83;;;3.67;;
23418;SDS011;11882;42.522;27.458;2024-03-02T03:16:08;5.17;;;3.80;;
23418;SDS011;11882;42.522;27.458;2024-03-02T03:18:35;4.87;;;3.47;;
23418;SDS011;11882;42.522;27.458;2024-03-02T03:21:02;6.03;;;3.50;;
23418;SDS011;11882;42.522;27.458;2024-03-02T03:23:29;5.23;;;3.70;;
23418;SDS011;11882;42.522;27.458;2024-03-02T03:25:55;9.37;;;3.20;;
23418;SDS011;11882;42.522;27.458;2024-03-02T03:28:22;5.57;;;3.37;;
23418;SDS011;11882;42.522;27.458;2024-03-02T03:30:50;7.73;;;3.93;;
23418;SDS011;11882;42.522;27.458;2024-03-02T03:33:17;5.50;;;3.87;;
23418;SDS011;11882;42.522;27.458;2024-03-02T03:35:44;5.50;;;3.33;;
23418;SDS011;11882;42.522;27.458;2024-03-02T03:38:11;8.70;;;3.83;;
23418;SDS011;11882;42.522;27.458;2024-03-02T03:40:38;8.13;;;4.50;;
23418;SDS011;11882;42.522;27.458;2024-03-02T03:43:05;7.23;;;3.80;;
23418;SDS011;11882;42.522;27.458;2024-03-02T03:45:32;5.50;;;3.33;;
23418;SDS011;11882;42.522;27.458;2024-03-02T03:48:01;6.63;;;4.00;;
23418;SDS011;11882;42.522;27.458;2024-03-02T03:50:27;4.03;;;3.17;;
23418;SDS011;11882;42.522;27.458;2024-03-02T03:52:54;4.07;;;2.93;;
23418;SDS011;11882;42.522;27.458;2024-03-02T03:55:21;11.13;;;4.13;;
23418;SDS011;11882;42.522;27.458;2024-03-02T03:57:48;6.60;;;3.90;;
23418;SDS011;11882;42.522;27.458;2024-03-02T04:00:15;3.60;;;2.87;;
23418;SDS011;11882;42.522;27.458;2024-03-02T04:02:42;6.10;;;3.07;;
23418;SDS011;11882;42.522;27.458;2024-03-02T04:05:10;4.90;;;3.70;;
23418;SDS011;11882;42.522;27.458;2024-03-02T04:07:37;5.27;;;4.10;;
23418;SDS011;11882;42.522;27.458;2024-03-02T04:10:08;9.60;;;4.33;;
23418;SDS011;11882;42.522;27.458;2024-03-02T04:12:35;7.33;;;4.17;;
23418;SDS011;11882;42.522;27.458;2024-03-02T04:15:03;4.90;;;3.43;;
23418;SDS011;11882;42.522;27.458;2024-03-02T04:17:31;9.40;;;3.60;;
23418;SDS011;11882;42.522;27.458;2024-03-02T04:19:58;5.73;;;4.07;;
23418;SDS011;11882;42.522;27.458;2024-03-02T04:22:27;9.60;;;4.23;;
23418;SDS011;11882;42.522;27.458;2024-03-02T04:24:54;7.13;;;3.30;;
23418;SDS011;11882;42.522;27.458;2024-03-02T04:27:21;4.57;;;3.23;;
23418;SDS011;11882;42.522;27.458;2024-03-02T04:29:47;8.00;;;3.47;;
23418;SDS011;11882;42.522;27.458;2024-03-02T04:32:15;6.80;;;4.10;;
23418;SDS011;11882;42.522;27.458;2024-03-02T04:34:47;5.77;;;3.33;;
23418;SDS011;11882;42.522;27.458;2024-03-02T04:37:14;8.03;;;4.47;;
23418;SDS011;11882;42.522;27.458;2024-03-02T04:39:42;5.43;;;3.17;;
23418;SDS011;11882;42.522;27.458;2024-03-02T04:42:09;6.53;;;4.00;;
23418;SDS011;11882;42.522;27.458;2024-03-02T04:44:36;7.00;;;4.30;;
23418;SDS011;11882;42.522;27.458;2024-03-02T04:47:03;5.70;;;4.40;;
23418;SDS011;11882;42.522;27.458;2024-03-02T04:49:30;6.07;;;3.33;;
23418;SDS011;11882;42.522;27.458;2024-03-02T04:51:57;7.00;;;3.47;;
23418;SDS011;11882;42.522;27.458;2024-03-02T04:54:24;3.93;;;2.97;;
23418;SDS011;11882;42.522;27.458;2024-03-02T04:56:52;9.33;;;4.03;;
23418;SDS011;11882;42.522;27.458;2024-03-02T04:59:19;3.97;;;3.00;;
23418;SDS011;11882;42.522;27.458;2024-03-02T05:01:45;4.93;;;2.90;;
23418;SDS011;11882;42.522;27.458;2024-03-02T05:04:12;8.90;;;5.10;;
23418;SDS011;11882;42.522;27.458;2024-03-02T05:06:39;10.60;;;5.07;;
23418;SDS011;11882;42.522;27.458;2024-03-02T05:09:06;11.00;;;4.33;;
23418;SDS011;11882;42.522;27.458;2024-03-02T05:11:33;9.20;;;4.60;;
23418;SDS011;11882;42.522;27.458;2024-03-02T05:14:36;6.17;;;3.50;;
23418;SDS011;11882;42.522;27.458;2024-03-02T05:17:03;7.27;;;3.80;;
23418;SDS011;11882;42.522;27.458;2024-03-02T05:19:30;6.27;;;4.00;;
23418;SDS011;11882;42.522;27.458;2024-03-02T05:21:57;10.87;;;4.17;;
23418;SDS011;11882;42.522;27.458;2024-03-02T05:24:24;9.53;;;4.17;;
23418;SDS011;11882;42.522;27.458;2024-03-02T05:26:52;5.73;;;3.97;;
23418;SDS011;11882;42.522;27.458;2024-03-02T05:29:19;7.97;;;4.07;;
23418;SDS011;11882;42.522;27.458;2024-03-02T05:31:47;9.27;;;4.00;;
23418;SDS011;11882;42.522;27.458;2024-03-02T05:34:14;21.13;;;4.40;;
23418;SDS011;11882;42.522;27.458;2024-03-02T05:36:41;7.53;;;3.93;;
23418;SDS011;11882;42.522;27.458;2024-03-02T05:39:08;11.57;;;4.57;;
23418;SDS011;11882;42.522;27.458;2024-03-02T05:41:35;8.63;;;4.10;;
23418;SDS011;11882;42.522;27.458;2024-03-02T05:44:03;4.63;;;2.77;;
23418;SDS011;11882;42.522;27.458;2024-03-02T05:46:30;4.77;;;3.17;;
23418;SDS011;11882;42.522;27.458;2024-03-02T05:48:58;8.30;;;4.17;;
23418;SDS011;11882;42.522;27.458;2024-03-02T05:51:26;12.17;;;4.97;;
23418;SDS011;11882;42.522;27.458;2024-03-02T05:53:52;5.73;;;3.77;;
23418;SDS011;11882;42.522;27.458;2024-03-02T05:56:19;5.73;;;4.43;;
23418;SDS011;11882;42.522;27.458;2024-03-02T05:58:46;6.67;;;4.03;;
23418;SDS011;11882;42.522;27.458;2024-03-02T06:01:23;4.00;;;3.33;;
23418;SDS011;11882;42.522;27.458;2024-03-02T06:03:53;6.60;;;4.20;;
23418;SDS011;11882;42.522;27.458;2024-03-02T06:06:22;8.17;;;4.70;;
23418;SDS011;11882;42.522;27.458;2024-03-02T06:08:48;8.20;;;4.23;;
23418;SDS011;11882;42.522;27.458;2024-03-02T06:11:16;11.43;;;4.73;;
23418;SDS011;11882;42.522;27.458;2024-03-02T06:13:42;10.90;;;5.13;;
23418;SDS011;11882;42.522;27.458;2024-03-02T06:16:09;10.93;;;4.90;;
23418;SDS011;11882;42.522;27.458;2024-03-02T06:18:39;5.73;;;4.60;;
23418;SDS011;11882;42.522;27.458;2024-03-02T06:21:06;7.03;;;4.70;;
23418;SDS011;11882;42.522;27.458;2024-03-02T06:23:34;5.50;;;4.37;;
23418;SDS011;11882;42.522;27.458;2024-03-02T06:26:01;7.23;;;4.93;;
23418;SDS011;11882;42.522;27.458;2024-03-02T06:28:28;6.47;;;4.07;;
23418;SDS011;11882;42.522;27.458;2024-03-02T06:30:54;5.03;;;3.90;;
23418;SDS011;11882;42.522;27.458;2024-03-02T06:33:21;8.03;;;4.80;;
23418;SDS011;11882;42.522;27.458;2024-03-02T06:35:48;7.27;;;4.87;;
23418;SDS011;11882;42.522;27.458;2024-03-02T06:38:15;9.57;;;4.80;;
23418;SDS011;11882;42.522;27.458;2024-03-02T06:40:44;6.30;;;3.97;;
23418;SDS011;11882;42.522;27.458;2024-03-02T06:43:10;5.37;;;4.77;;
23418;SDS011;11882;42.522;27.458;2024-03-02T06:45:37;6.33;;;4.17;;
23418;SDS011;11882;42.522;27.458;2024-03-02T06:48:04;4.90;;;3.93;;
23418;SDS011;11882;42.522;27.458;2024-03-02T06:50:31;4.60;;;3.57;;
23418;SDS011;11882;42.522;27.458;2024-03-02T06:52:58;10.60;;;7.20;;
23418;SDS011;11882;42.522;27.458;2024-03-02T06:55:25;7.83;;;4.30;;
23418;SDS011;11882;42.522;27.458;2024-03-02T06:57:53;5.93;;;4.23;;
23418;SDS011;11882;42.522;27.458;2024-03-02T07:00:20;4.87;;;3.47;;
23418;SDS011;11882;42.522;27.458;2024-03-02T07:03:04;3.70;;;3.00;;
23418;SDS011;11882;42.522;27.458;2024-03-02T07:05:31;6.37;;;3.27;;
23418;SDS011;11882;42.522;27.458;2024-03-02T07:07:58;5.17;;;3.03;;
23418;SDS011;11882;42.522;27.458;2024-03-02T07:10:28;4.47;;;3.30;;
23418;SDS011;11882;42.522;27.458;2024-03-02T07:12:56;3.13;;;2.80;;
23418;SDS011;11882;42.522;27.458;2024-03-02T07:15:23;5.63;;;3.23;;
23418;SDS011;11882;42.522;27.458;2024-03-02T07:18:09;11.93;;;4.53;;
23418;SDS011;11882;42.522;27.458;2024-03-02T07:20:36;9.20;;;4.67;;
23418;SDS011;11882;42.522;27.458;2024-03-02T07:23:04;10.13;;;3.90;;
23418;SDS011;11882;42.522;27.458;2024-03-02T07:25:31;9.17;;;4.33;;
23418;SDS011;11882;42.522;27.458;2024-03-02T07:27:59;6.30;;;4.23;;
23418;SDS011;11882;42.522;27.458;2024-03-02T07:30:26;6.17;;;3.63;;
23418;SDS011;11882;42.522;27.458;2024-03-02T07:32:53;4.53;;;3.37;;
23418;SDS011;11882;42.522;27.458;2024-03-02T07:35:20;7.07;;;3.67;;
23418;SDS011;11882;42.522;27.458;2024-03-02T07:37:47;9.30;;;4.50;;
23418;SDS011;11882;42.522;27.458;2024-03-02T07:40:14;6.10;;;3.37;;
23418;SDS011;11882;42.522;27.458;2024-03-02T07:42:41;9.83;;;4.03;;
23418;SDS011;11882;42.522;27.458;2024-03-02T07:45:09;4.97;;;3.53;;
23418;SDS011;11882;42.522;27.458;2024-03-02T07:47:36;5.77;;;3.43;;
23418;SDS011;11882;42.522;27.458;2024-03-02T07:50:04;6.03;;;3.83;;
23418;SDS011;11882;42.522;27.458;2024-03-02T07:52:31;7.20;;;4.40;;
23418;SDS011;11882;42.522;27.458;2024-03-02T07:54:58;14.47;;;3.90;;
23418;SDS011;11882;42.522;27.458;2024-03-02T07:57:25;11.80;;;3.57;;
23418;SDS011;11882;42.522;27.458;2024-03-02T07:59:52;4.93;;;3.20;;
23418;SDS011;11882;42.522;27.458;2024-03-02T08:02:20;6.87;;;3.03;;
23418;SDS011;11882;42.522;27.458;2024-03-02T08:04:47;6.30;;;4.13;;
23418;SDS011;11882;42.522;27.458;2024-03-02T08:07:14;7.13;;;4.20;;
23418;SDS011;11882;42.522;27.458;2024-03-02T08:09:41;4.80;;;2.93;;
23418;SDS011;11882;42.522;27.458;2024-03-02T08:12:08;4.07;;;2.90;;
23418;SDS011;11882;42.522;27.458;2024-03-02T08:14:35;6.53;;;3.20;;
23418;SDS011;11882;42.522;27.458;2024-03-02T08:17:02;5.83;;;3.53;;
23418;SDS011;11882;42.522;27.458;2024-03-02T08:19:36;4.80;;;3.60;;
23418;SDS011;11882;42.522;27.458;2024-03-02T08:22:03;5.00;;;3.60;;
23418;SDS011;11882;42.522;27.458;2024-03-02T08:24:30;6.70;;;3.50;;
23418;SDS011;11882;42.522;27.458;2024-03-02T08:26:57;6.83;;;4.20;;
23418;SDS011;11882;42.522;27.458;2024-03-02T08:29:24;5.23;;;3.67;;
23418;SDS011;11882;42.522;27.458;2024-03-02T08:31:51;6.83;;;3.73;;
23418;SDS011;11882;42.522;27.458;2024-03-02T08:34:18;6.57;;;3.70;;
23418;SDS011;11882;42.522;27.458;2024-03-02T08:36:47;6.10;;;3.67;;
23418;SDS011;11882;42.522;27.458;2024-03-02T08:39:14;5.40;;;3.43;;
23418;SDS011;11882;42.522;27.458;2024-03-02T08:41:41;4.43;;;3.20;;
23418;SDS011;11882;42.522;27.458;2024-03-02T08:44:08;4.57;;;3.30;;
23418;SDS011;11882;42.522;27.458;2024-03-02T08:46:35;5.23;;;2.80;;
23418;SDS011;11882;42.522;27.458;2024-03-02T08:49:02;9.80;;;2.97;;
23418;SDS011;11882;42.522;27.458;2024-03-02T08:51:29;4.73;;;3.20;;
23418;SDS011;11882;42.522;27.458;2024-03-02T08:53:58;6.80;;;3.47;;
23418;SDS011;11882;42.522;27.458;2024-03-02T08:56:25;10.33;;;3.83;;
23418;SDS011;11882;42.522;27.458;2024-03-02T08:58:52;13.83;;;3.97;;
23418;SDS011;11882;42.522;27.458;2024-03-02T09:01:19;4.90;;;3.23;;
23418;SDS011;11882;42.522;27.458;2024-03-02T09:03:46;5.27;;;3.00;;
23418;SDS011;11882;42.522;27.458;2024-03-02T09:06:14;6.10;;;3.13;;
23418;SDS011;11882;42.522;27.458;2024-03-02T09:08:42;8.53;;;3.47;;
23418;SDS011;11882;42.522;27.458;2024-03-02T09:11:10;5.00;;;3.27;;
23418;SDS011;11882;42.522;27.458;2024-03-02T09:13:37;5.73;;;3.30;;
23418;SDS011;11882;42.522;27.458;2024-03-02T09:16:04;8.83;;;4.47;;
23418;SDS011;11882;42.522;27.458;2024-03-02T09:18:31;7.53;;;3.37;;
23418;SDS011;11882;42.522;27.458;2024-03-02T09:20:58;7.47;;;3.47;;
23418;SDS011;11882;42.522;27.458;2024-03-02T09:23:25;6.60;;;3.40;;
23418;SDS011;11882;42.522;27.458;2024-03-02T09:25:51;4.67;;;3.53;;
23418;SDS011;11882;42.522;27.458;2024-03-02T09:28:20;5.70;;;2.87;;
23418;SDS011;11882;42.522;27.458;2024-03-02T09:30:47;5.87;;;2.93;;
23418;SDS011;11882;42.522;27.458;2024-03-02T09:33:13;4.80;;;3.40;;
23418;SDS011;11882;42.522;27.458;2024-03-02T09:35:40;6.57;;;3.77;;
23418;SDS011;11882;42.522;27.458;2024-03-02T09:38:07;5.77;;;3.27;;
23418;SDS011;11882;42.522;27.458;2024-03-02T09:40:34;7.47;;;2.80;;
23418;SDS011;11882;42.522;27.458;2024-03-02T09:43:01;14.13;;;3.23;;
23418;SDS011;11882;42.522;27.458;2024-03-02T09:45:30;5.30;;;3.30;;
23418;SDS011;11882;42.522;27.458;2024-03-02T09:47:57;6.63;;;2.93;;
23418;SDS011;11882;42.522;27.458;2024-03-02T09:50:24;5.47;;;3.43;;
23418;SDS011;11882;42.522;27.458;2024-03-02T09:52:50;7.93;;;3.00;;
23418;SDS011;11882;42.522;27.458;2024-03-02T09:55:19;7.57;;;3.23;;
23418;SDS011;11882;42.522;27.458;2024-03-02T09:57:47;7.57;;;3.17;;
23418;SDS011;11882;42.522;27.458;2024-03-02T10:00:15;7.50;;;2.90;;
23418;SDS011;11882;42.522;27.458;2024-03-02T10:02:43;5.97;;;2.93;;
23418;SDS011;11882;42.522;27.458;2024-03-02T10:05:11;5.97;;;3.10;;
23418;SDS011;11882;42.522;27.458;2024-03-02T10:07:38;3.70;;;2.87;;
23418;SDS011;11882;42.522;27.458;2024-03-02T10:10:12;6.87;;;3.27;;
23418;SDS011;11882;42.522;27.458;2024-03-02T10:12:39;5.57;;;3.80;;
23418;SDS011;11882;42.522;27.458;2024-03-02T10:15:06;11.27;;;3.00;;
23418;SDS011;11882;42.522;27.458;2024-03-02T10:17:34;6.40;;;3.07;;
23418;SDS011;11882;42.522;27.458;2024-03-02T10:22:45;6.47;;;3.53;;
23418;SDS011;11882;42.522;27.458;2024-03-02T10:25:15;5.60;;;3.17;;
23418;SDS011;11882;42.522;27.458;2024-03-02T10:27:56;3.23;;;2.60;;
23418;SDS011;11882;42.522;27.458;2024-03-02T10:30:23;5.27;;;3.70;;
23418;SDS011;11882;42.522;27.458;2024-03-02T10:32:50;6.83;;;3.67;;
23418;SDS011;11882;42.522;27.458;2024-03-02T10:35:16;4.23;;;3.17;;
23418;SDS011;11882;42.522;27.458;2024-03-02T10:37:45;6.63;;;3.23;;
23418;SDS011;11882;42.522;27.458;2024-03-02T10:40:13;4.90;;;3.07;;
23418;SDS011;11882;42.522;27.458;2024-03-02T10:42:41;4.10;;;3.30;;
23418;SDS011;11882;42.522;27.458;2024-03-02T10:45:08;5.37;;;3.70;;
23418;SDS011;11882;42.522;27.458;2024-03-02T10:47:35;5.83;;;3.10;;
23418;SDS011;11882;42.522;27.458;2024-03-02T10:50:03;13.13;;;2.97;;
23418;SDS011;11882;42.522;27.458;2024-03-02T10:52:33;7.73;;;2.97;;
23418;SDS011;11882;42.522;27.458;2024-03-02T10:55:01;6.40;;;2.90;;
23418;SDS011;11882;42.522;27.458;2024-03-02T10:57:32;6.73;;;3.10;;
23418;SDS011;11882;42.522;27.458;2024-03-02T11:00:02;6.40;;;3.73;;
23418;SDS011;11882;42.522;27.458;2024-03-02T11:02:29;4.13;;;2.87;;
23418;SDS011;11882;42.522;27.458;2024-03-02T11:04:57;7.10;;;3.67;;
23418;SDS011;11882;42.522;27.458;2024-03-02T11:07:26;16.70;;;3.47;;
23418;SDS011;11882;42.522;27.458;2024-03-02T11:09:54;3.60;;;2.83;;
23418;SDS011;11882;42.522;27.458;2024-03-02T11:12:27;7.37;;;3.13;;
23418;SDS011;11882;42.522;27.458;2024-03-02T11:14:55;7.87;;;3.63;;
23418;SDS011;11882;42.522;27.458;2024-03-02T11:17:22;5.77;;;3.30;;
23418;SDS011;11882;42.522;27.458;2024-03-02T11:19:49;6.87;;;3.53;;
23418;SDS011;11882;42.522;27.458;2024-03-02T11:22:16;5.93;;;3.07;;
23418;SDS011;11882;42.522;27.458;2024-03-02T11:24:50;7.57;;;4.03;;
23418;SDS011;11882;42.522;27.458;2024-03-02T11:30:00;6.23;;;3.30;;
23418;SDS011;11882;42.522;27.458;2024-03-02T11:32:28;4.03;;;2.60;;
23418;SDS011;11882;42.522;27.458;2024-03-02T11:34:55;3.83;;;2.50;;
23418;SDS011;11882;42.522;27.458;2024-03-02T11:37:22;7.63;;;3.33;;
23418;SDS011;11882;42.522;27.458;2024-03-02T11:39:51;4.93;;;2.73;;
23418;SDS011;11882;42.522;27.458;2024-03-02T11:42:18;7.20;;;3.07;;
23418;SDS011;11882;42.522;27.458;2024-03-02T11:44:45;4.47;;;2.77;;
23418;SDS011;11882;42.522;27.458;2024-03-02T11:47:14;3.77;;;2.73;;
23418;SDS011;11882;42.522;27.458;2024-03-02T11:49:42;8.83;;;2.70;;
23418;SDS011;11882;42.522;27.458;2024-03-02T11:52:10;2.83;;;2.40;;
23418;SDS011;11882;42.522;27.458;2024-03-02T11:54:37;5.50;;;3.17;;
23418;SDS011;11882;42.522;27.458;2024-03-02T11:57:06;7.83;;;3.00;;
23418;SDS011;11882;42.522;27.458;2024-03-02T11:59:33;3.40;;;2.60;;
23418;SDS011;11882;42.522;27.458;2024-03-02T12:02:00;5.80;;;3.00;;
23418;SDS011;11882;42.522;27.458;2024-03-02T12:04:29;4.30;;;2.47;;
23418;SDS011;11882;42.522;27.458;2024-03-02T12:06:56;6.03;;;2.93;;
23418;SDS011;11882;42.522;27.458;2024-03-02T12:09:26;5.07;;;2.83;;
23418;SDS011;11882;42.522;27.458;2024-03-02T12:12:02;4.73;;;2.70;;
23418;SDS011;11882;42.522;27.458;2024-03-02T12:14:30;4.03;;;2.57;;
23418;SDS011;11882;42.522;27.458;2024-03-02T12:16:57;5.87;;;2.73;;
23418;SDS011;11882;42.522;27.458;2024-03-02T12:19:25;6.10;;;3.23;;
23418;SDS011;11882;42.522;27.458;2024-03-02T12:21:53;6.43;;;2.67;;
23418;SDS011;11882;42.522;27.458;2024-03-02T12:24:20;1.77;;;1.67;;
23418;SDS011;11882;42.522;27.458;2024-03-02T12:26:47;4.83;;;2.80;;
23418;SDS011;11882;42.522;27.458;2024-03-02T12:29:15;4.63;;;2.57;;
23418;SDS011;11882;42.522;27.458;2024-03-02T12:31:41;2.00;;;1.80;;
23418;SDS011;11882;42.522;27.458;2024-03-02T12:34:11;5.63;;;3.33;;
23418;SDS011;11882;42.522;27.458;2024-03-02T12:36:38;5.23;;;2.93;;
23418;SDS011;11882;42.522;27.458;2024-03-02T12:39:08;11.97;;;3.13;;
23418;SDS011;11882;42.522;27.458;2024-03-02T12:41:36;7.17;;;3.13;;
23418;SDS011;11882;42.522;27.458;2024-03-02T12:44:02;3.87;;;2.77;;
23418;SDS011;11882;42.522;27.458;2024-03-02T12:46:29;5.70;;;3.13;;
23418;SDS011;11882;42.522;27.458;2024-03-02T12:48:56;4.87;;;2.90;;
23418;SDS011;11882;42.522;27.458;2024-03-02T12:51:23;3.43;;;2.33;;
23418;SDS011;11882;42.522;27.458;2024-03-02T12:53:52;8.60;;;3.23;;
23418;SDS011;11882;42.522;27.458;2024-03-02T12:56:21;6.83;;;3.30;;
23418;SDS011;11882;42.522;27.458;2024-03-02T12:58:52;6.13;;;3.23;;
23418;SDS011;11882;42.522;27.458;2024-03-02T13:01:19;5.47;;;3.10;;
23418;SDS011;11882;42.522;27.458;2024-03-02T13:03:47;6.70;;;3.17;;
23418;SDS011;11882;42.522;27.458;2024-03-02T13:06:14;2.73;;;2.37;;
23418;SDS011;11882;42.522;27.458;2024-03-02T13:08:41;3.73;;;2.40;;
23418;SDS011;11882;42.522;27.458;2024-03-02T13:11:08;8.17;;;3.03;;
23418;SDS011;11882;42.522;27.458;2024-03-02T13:13:38;2.57;;;2.13;;
23418;SDS011;11882;42.522;27.458;2024-03-02T13:16:07;6.90;;;2.50;;
23418;SDS011;11882;42.522;27.458;2024-03-02T13:18:34;4.40;;;2.17;;
23418;SDS011;11882;42.522;27.458;2024-03-02T13:21:01;3.87;;;2.47;;
23418;SDS011;11882;42.522;27.458;2024-03-02T13:23:31;7.67;;;2.50;;
23418;SDS011;11882;42.522;27.458;2024-03-02T13:25:58;4.67;;;2.83;;
23418;SDS011;11882;42.522;27.458;2024-03-02T13:28:24;5.53;;;3.00;;
23418;SDS011;11882;42.522;27.458;2024-03-02T13:30:54;3.23;;;2.17;;
23418;SDS011;11882;42.522;27.458;2024-03-02T13:33:21;4.07;;;2.87;;
23418;SDS011;11882;42.522;27.458;2024-03-02T13:35:51;2.77;;;2.43;;
23418;SDS011;11882;42.522;27.458;2024-03-02T13:38:18;6.07;;;2.40;;
23418;SDS011;11882;42.522;27.458;2024-03-02T13:40:45;4.00;;;2.63;;
23418;SDS011;11882;42.522;27.458;2024-03-02T13:43:12;12.20;;;2.60;;
23418;SDS011;11882;42.522;27.458;2024-03-02T13:45:39;5.73;;;2.80;;
23418;SDS011;11882;42.522;27.458;2024-03-02T13:48:08;5.53;;;2.60;;
23418;SDS011;11882;42.522;27.458;2024-03-02T13:50:34;4.13;;;2.77;;
23418;SDS011;11882;42.522;27.458;2024-03-02T13:53:01;5.93;;;2.77;;
23418;SDS011;11882;42.522;27.458;2024-03-02T13:55:29;8.87;;;2.67;;
23418;SDS011;11882;42.522;27.458;2024-03-02T13:57:56;7.87;;;2.50;;
23418;SDS011;11882;42.522;27.458;2024-03-02T14:00:23;7.00;;;2.57;;
23418;SDS011;11882;42.522;27.458;2024-03-02T14:02:50;3.57;;;1.97;;
23418;SDS011;11882;42.522;27.458;2024-03-02T14:05:19;5.37;;;2.97;;
23418;SDS011;11882;42.522;27.458;2024-03-02T14:07:48;3.17;;;2.20;;
23418;SDS011;11882;42.522;27.458;2024-03-02T14:10:15;3.37;;;2.40;;
23418;SDS011;11882;42.522;27.458;2024-03-02T14:12:41;3.23;;;2.17;;
23418;SDS011;11882;42.522;27.458;2024-03-02T14:15:08;8.37;;;3.10;;
23418;SDS011;11882;42.522;27.458;2024-03-02T14:17:35;4.30;;;2.60;;
23418;SDS011;11882;42.522;27.458;2024-03-02T14:20:02;4.23;;;2.90;;
23418;SDS011;11882;42.522;27.458;2024-03-02T14:22:31;3.53;;;2.17;;
23418;SDS011;11882;42.522;27.458;2024-03-02T14:24:59;10.43;;;3.93;;
23418;SDS011;11882;42.522;27.458;2024-03-02T14:27:25;3.50;;;2.70;;
23418;SDS011;11882;42.522;27.458;2024-03-02T14:29:52;4.70;;;3.80;;
23418;SDS011;11882;42.522;27.458;2024-03-02T14:32:19;3.97;;;2.93;;
23418;SDS011;11882;42.522;27.458;2024-03-02T14:34:46;7.13;;;4.33;;
23418;SDS011;11882;42.522;27.458;2024-03-02T14:37:13;14.23;;;3.30;;